Flight Track Log - Related Links

Times and Time Zones

All times are in EDT time to prevent confusion due to time zone crossing. See the N860BA flight status page for this flight to view local times or setup timezone preferences in your user account.


Time Position Orientation Groundspeed Altitude Reporting Facility
EDT Latitude Longitude Course Direction KTS MPH feet Rate Location/Type
Wed 08:29:14 PM 32.7167 -97.3333 170° South 239 275 4,300  Level Dallas / Fort Worth TRACON
Wed 08:30:20 PM 32.6667 -97.2833 140° Southeast 263 303 7,600 2,975 Climbing Dallas / Fort Worth TRACON
Wed 08:31:15 PM 32.6500 -97.2167 107° East 282 325 10,300 2,558 Climbing Dallas / Fort Worth TRACON
Wed 08:33:30 PM 32.7094 -97.0036 72° East 311 358 15,700 2,185 Climbing Fort Worth Center
Wed 08:34:30 PM 32.7300 -96.9097 75° East 311 358 17,400 1,450 Climbing Fort Worth Center
Wed 08:35:30 PM 32.7567 -96.8008 74° East 332 382 18,600 1,150 Climbing Fort Worth Center
Wed 08:36:30 PM 32.7872 -96.6672 75° East 364 419 19,700 1,050 Climbing Fort Worth Center
Wed 08:37:30 PM 32.8136 -96.5508 75° East 386 444 20,700 1,200 Climbing Fort Worth Center
Wed 08:38:30 PM 32.8481 -96.4044 74° East 405 466 22,100 1,350 Climbing Fort Worth Center
Wed 08:39:30 PM 32.8681 -96.2831 79° East 413 475 23,400 1,300 Climbing Fort Worth Center
Wed 08:40:30 PM 32.8686 -96.1397 90° East 413 475 24,700 1,400 Climbing Fort Worth Center
Wed 08:41:30 PM 32.8736 -96.0011 88° East 413 475 26,200 1,450 Climbing Fort Worth Center
Wed 08:42:30 PM 32.8739 -95.8625 90° East 418 481 27,600 1,450 Climbing Fort Worth Center
Wed 08:43:30 PM 32.8742 -95.7217 90° East 418 481 29,100 1,350 Climbing Fort Worth Center
Wed 08:44:30 PM 32.8764 -95.5831 89° East 418 481 30,300 950 Climbing Fort Worth Center
Wed 08:45:30 PM 32.8786 -95.4419 89° East 418 481 31,000 600 Climbing Fort Worth Center
Wed 08:46:30 PM 32.8950 -95.2931 82° East 429 494 31,500 550 Climbing Fort Worth Center
Wed 08:47:30 PM 32.9217 -95.1464 78° East 441 507 32,100 550 Climbing Fort Worth Center
Wed 08:48:30 PM 32.9522 -94.9947 76° East 455 524 32,600 550 Climbing Fort Worth Center
Wed 08:49:30 PM 32.9847 -94.8428 76° East 460 529 33,200 550 Climbing Fort Worth Center
Wed 08:50:30 PM 33.0147 -94.6883 77° East 470 541 33,700 500 Climbing Fort Worth Center
Wed 08:51:30 PM 33.0467 -94.5286 77° East 475 547 34,200 500 Climbing Fort Worth Center
Wed 08:52:30 PM 33.0764 -94.3742 77° East 475 547 34,700 400 Climbing Fort Worth Center
Wed 08:53:30 PM 33.1058 -94.2169 77° East 475 547 35,000 150 Climbing Fort Worth Center
Wed 08:54:30 PM 33.1353 -94.0569 78° East 475 547 35,000  Level Fort Worth Center
Wed 08:55:30 PM 33.1642 -93.8922 78° East 487 560 35,000  Level Fort Worth Center
Wed 08:56:30 PM 33.2006 -93.7119 76° East 500 575 35,000  Level Fort Worth Center
Wed 08:57:30 PM 33.2333 -93.5492 76° East 500 575 35,000  Level Fort Worth Center
Wed 08:58:30 PM 33.2636 -93.3889 77° East 495 570 35,000 -100 Level Fort Worth Center
Wed 08:59:30 PM 33.2939 -93.2286 77° East 495 570 34,800 -400 Descending Fort Worth Center
Wed 09:00:30 PM 33.3258 -93.0631 77° East 495 570 34,200 -600 Descending Fort Worth Center
Wed 09:01:30 PM 33.3575 -92.8972 77° East 495 570 33,600 -600 Descending Fort Worth Center
Wed 09:02:30 PM 33.3869 -92.7292 78° East 500 575 33,000 -300 Descending Fort Worth Center
Wed 09:03:30 PM 33.4181 -92.5633 77° East 500 575 33,000  Level Fort Worth Center
Wed 09:04:37 PM 33.4444 -92.3986 79° East 510 587 33,000  Level Memphis Center
Wed 09:05:37 PM 33.4742 -92.2350 78° East 510 587 33,000  Level Memphis Center
Wed 09:06:37 PM 33.5036 -92.0711 78° East 505 581 33,000  Level Memphis Center
Wed 09:07:37 PM 33.5308 -91.9022 79° East 505 581 33,000  Level Memphis Center
Wed 09:08:37 PM 33.5642 -91.7383 76° East 505 581 33,000  Level Memphis Center
Wed 09:09:37 PM 33.5844 -91.5742 82° East 505 581 33,000  Level Memphis Center
Wed 09:10:37 PM 33.6089 -91.4047 80° East 505 581 33,000  Level Memphis Center
Wed 09:11:37 PM 33.6292 -91.2403 82° East 505 581 33,000  Level Memphis Center
Wed 09:12:37 PM 33.6511 -91.0683 81° East 505 581 33,000  Level Memphis Center
Wed 09:13:37 PM 33.6708 -90.8814 83° East 511 588 33,000  Level Memphis Center
Wed 09:14:37 PM 33.6922 -90.7117 81° East 511 588 33,000  Level Memphis Center
Wed 09:15:37 PM 33.7133 -90.5419 81° East 511 588 33,000  Level Memphis Center
Wed 09:16:37 PM 33.7322 -90.3747 82° East 511 588 33,000  Level Memphis Center
Wed 09:17:37 PM 33.7511 -90.2047 82° East 511 588 33,000  Level Memphis Center
Wed 09:18:37 PM 33.7717 -90.0347 82° East 511 588 33,000  Level Memphis Center
Wed 09:19:36 PM 33.7897 -89.8647 83° East 511 588 33,000  Level Memphis Center
Wed 09:20:37 PM 33.8097 -89.6947 82° East 511 588 33,000  Level Memphis Center
Wed 09:21:37 PM 33.8236 -89.5344 84° East 526 605 33,000 -650 Level Memphis Center
Wed 09:22:37 PM 33.8411 -89.3644 83° East 521 600 31,700 -1,500 Descending Memphis Center
Wed 09:23:37 PM 33.8689 -89.1939 79° East 521 600 30,000 -1,750 Descending Memphis Center
Wed 09:24:37 PM 33.8983 -89.0283 78° East 510 587 28,200 -1,800 Descending Memphis Center
Wed 09:25:37 PM 33.9278 -88.8678 77° East 493 567 26,400 -1,750 Descending Memphis Center
Wed 09:26:37 PM 33.9553 -88.7194 77° East 470 541 24,700 -1,750 Descending Memphis Center
Wed 09:27:37 PM 33.9864 -88.5611 77° East 470 541 22,900 -1,850 Descending Memphis Center
Wed 09:28:37 PM 34.0153 -88.4025 78° East 470 541 21,000 -1,850 Descending Memphis Center
Wed 09:29:37 PM 34.0419 -88.2464 78° East 470 541 19,200 -1,650 Descending Memphis Center
Wed 09:30:37 PM 34.0644 -88.1056 79° East 470 541 17,700 -1,900 Descending Memphis Center
Wed 09:31:37 PM 34.0822 -87.9294 83° East 456 525 15,400 -2,100 Descending Memphis Center
Wed 09:32:37 PM 34.0961 -87.7886 83° East 439 505 13,500 -1,850 Descending Memphis Center
Wed 09:33:37 PM 34.1081 -87.6656 83° East 401 461 11,700 -1,850 Descending Memphis Center
Wed 09:34:37 PM 34.1181 -87.5547 84° East 358 412 9,800 -1,866 Descending Memphis Center
Wed 09:35:36 PM 34.1261 -87.4517 85° East 327 376 8,000 -2,400 Descending Memphis Center
Wed 09:36:37 PM 34.1364 -87.3533 83° East 306 352 5,000 -1,537 Descending Memphis Center
Wed 09:37:37 PM 34.1444 -87.2628 84° East 291 335 4,900 -350 Descending Memphis Center
Wed 09:38:37 PM 34.1547 -87.1769 82° East 268 308 4,300 -450 Descending Memphis Center
Wed 09:39:37 PM 34.1631 -87.0939 83° East 253 291 4,000 -202 Descending Memphis Center
Wed 09:40:36 PM 34.1736 -87.0181 80° East 241 277 3,900 -100 Descending Memphis Center
Wed 09:41:37 PM 34.1822 -86.9500 81° East 233 268 3,800 545 Descending Memphis Center
Wed 09:42:37 PM 34.1906 -86.8744 82° East 233 268 5,000 605 Climbing Memphis Center
Wed 09:43:36 PM 34.1989 -86.7986 82° East 233 268 5,000  Level Memphis Center
Wed 09:44:36 PM 34.2072 -86.7231 82° East 233 268 5,000  Level Memphis Center
Wed 09:45:36 PM 34.2086 -86.7078 84° East 233 268 5,000  Level Memphis Center
Wed 09:47:36 PM 34.2086 -86.7078 59° Northeast 233 268 5,000  Level Memphis Center
Wed 09:49:36 PM 34.2086 -86.7078 59° Northeast 233 268 5,000  Level Memphis Center

Login

Don't have an account? Register now (free) for customized features, flight alerts, and more!